首页
METAR-TAF:

METAR-TAF

机场 :

德梅因, 艾奥瓦州, 美国

纬度: 41-32-16N, 经度: 093-39-58W, 海拔: 291米

当前天气观测

该预报发布于30分钟前的05:54 UTC
风速15节,风向南转西南
温度 32°C
湿度 56%
气压 1006 hPa
能見度: 16.1公里
少量云层高于6000英尺
少量云层高于25000英尺

METAR: KDSM 250554Z 21015KT 10SM FEW060 FEW250 32/22 A2971 RMK AO2 SLP047 T03170217 10356 20317 403670233 50001

时间: 01:24 (06:24 UTC)

预报

该预报发布于1小时和4分钟前的05:20 UTC
预报有效从25日的 06点(UTC)到 26日的 06点(UTC)
风速11节,风向南转西南
能見度: 10公里
少量云层高于15000英尺
从 25日的 1000点(UTC)
风速9节,风向西转西南
能見度: 10公里
散云层高于25000英尺
从 25日的 1900点(UTC)
风速7节,风向西北
能見度: 10公里
散云层高于22000英尺
附近有阵雨
从 25日的 2100点(UTC)
风速8节,风向
能見度: 10公里
多云层高于8000英尺, 积雨云.
附近有雷暴
从 25日的 2200点(UTC)
风速7节,风向南转西南
能見度: 10公里
多云层高于6000英尺, 积雨云.
小阵雨, 附近有雷暴
从 26日的 0200点(UTC)
风速5节,风向北转东北
能見度: 10公里
多云层高于12000英尺

TAF: KDSM 250520Z 2506/2606 20011KT P6SM FEW150 WS016/23045KT FM251000 24009KT P6SM SCT250 WS020/25045KT FM251900 31007KT P6SM VCSH SCT220 FM252100 18008KT P6SM VCTS BKN080CB FM252200 21007KT P6SM -SHRA VCTS BKN060CB FM260200 02005KT P6SM BKN120

超过4000个机场的气象观测和天气预报(METAR&TAF报告)。

可查询的气象台以黄色和红色小点在地图上表示。

将鼠标移到小点上方,可查看气象台名称。

然后点击查看天气观测和预报。

如需切换地图:点击带黑十字的绿色按钮放大地图;点击带横线的绿色按钮缩小地图;或者点击绿色箭头查看邻近地区的地图。


METAR-TAF: